Terminal Aerodrome Forecast
Issued by NWS Cleveland, OH

Home | Current Version | Previous Version | Graphics & Text | Print | Product List | Glossary Off
Versions: 1 2 3 4 5 6 7 8 9 10 11 12 13 14 15 16 17 18

000
FTUS41 KCLE 111502 AAA
TAFTOL
TAF AMD
KTOL 111502Z 1115/1212 15005KT P6SM SCT025 OVC035
      TEMPO 1115/1117 4SM -SN BKN025
     FM111800 18008KT 4SM -SHSN OVC020
     FM120400 24006KT P6SM OVC012=

USA.gov is the U.S. government's official web portal to all federal, state and local government web resources and services.